createdAt,value
2018-06-11T00:00:04.112Z,19.4
2018-06-11T00:00:08.112Z,19.42
2018-06-11T00:00:12.327Z,19.4
2018-06-11T00:00:16.639Z,19.43
2018-06-11T00:00:20.738Z,19.43
2018-06-11T00:00:24.943Z,19.38
2018-06-11T00:00:29.040Z,19.38
2018-06-11T00:00:33.147Z,19.43
2018-06-11T00:00:37.358Z,19.42
2018-06-11T00:00:41.560Z,19.4
2018-06-11T00:00:45.658Z,19.45
2018-06-11T00:00:49.761Z,19.45
2018-06-11T00:00:53.969Z,19.45
2018-06-11T00:00:58.193Z,19.31
2018-06-11T00:01:02.295Z,19.43
2018-06-11T00:01:06.295Z,19.46
2018-06-11T00:01:10.605Z,19.43
2018-06-11T00:01:14.805Z,19.39
2018-06-11T00:01:19.016Z,19.45
2018-06-11T00:01:23.325Z,19.45
2018-06-11T00:01:27.536Z,19.31
2018-06-11T00:01:31.742Z,19.35
2018-06-11T00:01:35.948Z,19.38
2018-06-11T00:01:40.257Z,19.39
2018-06-11T00:01:44.463Z,19.45
2018-06-11T00:01:48.568Z,19.35
2018-06-11T00:01:52.772Z,19.38
2018-06-11T00:01:57.083Z,19.45
2018-06-11T00:02:01.404Z,19.38
2018-06-11T00:02:05.723Z,19.38
2018-06-11T00:02:10.037Z,19.38
2018-06-11T00:02:14.242Z,19.39
2018-06-11T00:02:18.553Z,19.39
2018-06-11T00:02:22.753Z,19.35
2018-06-11T00:02:27.061Z,19.4
2018-06-11T00:02:31.155Z,19.35
2018-06-11T00:02:35.360Z,19.35
2018-06-11T00:02:39.561Z,19.34
2018-06-11T00:02:43.761Z,19.35
2018-06-11T00:02:47.858Z,19.46
2018-06-11T00:02:51.960Z,19.45
2018-06-11T00:02:56.163Z,19.39
2018-06-11T00:03:00.363Z,19.35
2018-06-11T00:03:04.559Z,19.28
2018-06-11T00:03:08.659Z,19.45
2018-06-11T00:03:12.763Z,19.42
2018-06-11T00:03:16.860Z,19.46
2018-06-11T00:03:21.071Z,19.31
2018-06-11T00:03:25.062Z,19.43
2018-06-11T00:03:29.058Z,19.35
2018-06-11T00:03:33.259Z,19.4
2018-06-11T00:03:37.463Z,19.38
2018-06-11T00:03:41.459Z,19.43
2018-06-11T00:03:45.761Z,19.31
2018-06-11T00:03:49.961Z,19.38
2018-06-11T00:03:54.284Z,19.4
2018-06-11T00:03:58.594Z,19.46
2018-06-11T00:04:02.791Z,19.39
2018-06-11T00:04:06.894Z,19.32
2018-06-11T00:04:11.207Z,19.38
2018-06-11T00:04:15.451Z,19.39
2018-06-11T00:04:19.760Z,19.38
2018-06-11T00:04:23.964Z,19.39
2018-06-11T00:04:27.954Z,19.4
2018-06-11T00:04:32.162Z,19.47
2018-06-11T00:04:36.364Z,19.42
2018-06-11T00:04:40.671Z,19.39
2018-06-11T00:04:44.873Z,19.42
2018-06-11T00:04:49.082Z,19.38
2018-06-11T00:04:53.282Z,19.39
2018-06-11T00:04:57.591Z,19.4
2018-06-11T00:05:01.686Z,19.35
2018-06-11T00:05:05.467Z,19.39
2018-06-11T00:05:09.785Z,19.45
2018-06-11T00:05:14.005Z,19.45
2018-06-11T00:05:18.107Z,19.43
2018-06-11T00:05:22.417Z,19.45
2018-06-11T00:05:26.624Z,19.4
2018-06-11T00:05:30.834Z,19.4
2018-06-11T00:05:35.047Z,19.39
2018-06-11T00:05:39.360Z,19.45
2018-06-11T00:05:43.572Z,19.4
2018-06-11T00:05:47.769Z,19.35
2018-06-11T00:05:52.074Z,19.43
2018-06-11T00:05:56.168Z,19.39
2018-06-11T00:06:00.374Z,19.45
2018-06-11T00:06:04.581Z,19.43
2018-06-11T00:06:08.790Z,19.49
2018-06-11T00:06:13.105Z,19.42
2018-06-11T00:06:17.311Z,19.38
2018-06-11T00:06:21.514Z,19.43
2018-06-11T00:06:25.606Z,19.43
2018-06-11T00:06:29.807Z,19.42
2018-06-11T00:06:34.006Z,19.45
2018-06-11T00:06:38.322Z,19.45
2018-06-11T00:06:42.631Z,19.45
2018-06-11T00:06:46.834Z,19.4
2018-06-11T00:06:51.140Z,19.4
2018-06-11T00:06:55.453Z,19.45
2018-06-11T00:06:59.659Z,19.43
2018-06-11T00:07:03.542Z,19.4
2018-06-11T00:07:07.636Z,19.39
2018-06-11T00:07:11.845Z,19.38
2018-06-11T00:07:16.057Z,19.43
2018-06-11T00:07:20.152Z,19.4
2018-06-11T00:07:24.142Z,19.43
2018-06-11T00:07:28.349Z,19.46
2018-06-11T00:07:32.495Z,19.38
2018-06-11T00:07:36.806Z,19.45
2018-06-11T00:07:41.116Z,19.45
2018-06-11T00:07:45.315Z,19.45
2018-06-11T00:07:49.522Z,19.42
2018-06-11T00:07:53.834Z,19.4
2018-06-11T00:07:57.938Z,19.4
2018-06-11T00:08:02.287Z,19.46
2018-06-11T00:08:06.279Z,19.45
2018-06-11T00:08:10.484Z,19.46
2018-06-11T00:08:14.693Z,19.46
2018-06-11T00:08:18.935Z,19.4
2018-06-11T00:08:23.244Z,19.43
2018-06-11T00:08:27.448Z,19.39
2018-06-11T00:08:31.659Z,19.4
2018-06-11T00:08:35.979Z,19.4
2018-06-11T00:08:40.081Z,19.43
2018-06-11T00:08:44.070Z,19.4
2018-06-11T00:08:48.275Z,19.4
2018-06-11T00:08:52.584Z,19.4
2018-06-11T00:08:56.787Z,19.43
2018-06-11T00:09:00.990Z,19.42
2018-06-11T00:09:05.344Z,19.43
2018-06-11T00:09:09.655Z,19.45
2018-06-11T00:09:13.856Z,19.42
2018-06-11T00:09:18.167Z,19.45
2018-06-11T00:09:22.375Z,19.4
2018-06-11T00:09:26.366Z,19.45
2018-06-11T00:09:30.566Z,19.46
2018-06-11T00:09:34.666Z,19.47
2018-06-11T00:09:38.873Z,19.47
2018-06-11T00:09:43.086Z,19.43
2018-06-11T00:09:47.287Z,19.46
2018-06-11T00:09:51.593Z,19.4
2018-06-11T00:09:55.691Z,19.42
2018-06-11T00:09:59.679Z,19.39
2018-06-11T00:10:03.673Z,19.43
2018-06-11T00:10:07.666Z,19.43
2018-06-11T00:10:11.873Z,19.46
2018-06-11T00:10:15.863Z,19.43
2018-06-11T00:10:20.099Z,19.43
2018-06-11T00:10:24.304Z,19.43
2018-06-11T00:10:28.616Z,19.39
2018-06-11T00:10:32.829Z,19.43
2018-06-11T00:10:37.183Z,19.43
2018-06-11T00:10:41.391Z,19.45
2018-06-11T00:10:45.587Z,19.43
2018-06-11T00:10:49.689Z,19.4
2018-06-11T00:10:54.041Z,19.43
2018-06-11T00:10:58.355Z,19.39
2018-06-11T00:11:02.710Z,19.45
2018-06-11T00:11:06.593Z,19.4
2018-06-11T00:11:10.797Z,19.38
2018-06-11T00:11:14.993Z,19.4
2018-06-11T00:11:19.312Z,19.4
2018-06-11T00:11:23.513Z,19.39
2018-06-11T00:11:27.603Z,19.42
2018-06-11T00:11:31.595Z,19.39
2018-06-11T00:11:35.797Z,19.46
2018-06-11T00:11:40.107Z,19.42
2018-06-11T00:11:44.419Z,19.4
2018-06-11T00:11:48.624Z,19.42
2018-06-11T00:11:52.835Z,19.34
2018-06-11T00:11:56.935Z,19.39
2018-06-11T00:12:01.137Z,19.42
2018-06-11T00:12:05.128Z,19.4
2018-06-11T00:12:09.340Z,19.43
2018-06-11T00:12:13.542Z,19.38
2018-06-11T00:12:17.852Z,19.46
2018-06-11T00:12:22.056Z,19.45
2018-06-11T00:12:26.368Z,19.42
2018-06-11T00:12:30.462Z,19.49
2018-06-11T00:12:34.662Z,19.45
2018-06-11T00:12:38.872Z,19.39
2018-06-11T00:12:43.195Z,19.39
2018-06-11T00:12:47.392Z,19.31
2018-06-11T00:12:51.705Z,19.43
2018-06-11T00:12:56.023Z,19.4
2018-06-11T00:13:00.022Z,19.4
2018-06-11T00:13:04.020Z,19.35
2018-06-11T00:13:08.011Z,19.43
2018-06-11T00:13:12.272Z,19.42
2018-06-11T00:13:16.577Z,19.4
2018-06-11T00:13:20.779Z,19.45
2018-06-11T00:13:24.883Z,19.43
2018-06-11T00:13:29.085Z,19.45
2018-06-11T00:13:33.282Z,19.38
2018-06-11T00:13:37.477Z,19.38
2018-06-11T00:13:41.784Z,19.45
2018-06-11T00:13:45.990Z,19.42
2018-06-11T00:13:50.192Z,19.46
2018-06-11T00:13:54.503Z,19.45
2018-06-11T00:13:58.817Z,19.43
2018-06-11T00:14:02.921Z,19.43
2018-06-11T00:14:07.124Z,19.43
2018-06-11T00:14:11.112Z,19.38
2018-06-11T00:14:15.422Z,19.46
2018-06-11T00:14:19.727Z,19.43
2018-06-11T00:14:23.829Z,19.34
2018-06-11T00:14:27.823Z,19.46
2018-06-11T00:14:32.143Z,19.43
2018-06-11T00:14:36.130Z,19.39
2018-06-11T00:14:40.334Z,19.38
2018-06-11T00:14:44.655Z,19.42
2018-06-11T00:14:48.640Z,19.49
2018-06-11T00:14:52.733Z,19.4
2018-06-11T00:14:57.056Z,19.43
2018-06-11T00:15:01.158Z,19.43
2018-06-11T00:15:05.152Z,19.39
2018-06-11T00:15:09.460Z,19.4
2018-06-11T00:15:13.555Z,19.42
2018-06-11T00:15:17.764Z,19.43
2018-06-11T00:15:21.862Z,19.4
2018-06-11T00:15:26.074Z,19.45
2018-06-11T00:15:30.071Z,19.43
2018-06-11T00:15:34.175Z,19.42
2018-06-11T00:15:38.277Z,19.47
2018-06-11T00:15:42.485Z,19.43
2018-06-11T00:15:46.806Z,19.46
2018-06-11T00:15:50.901Z,19.4
2018-06-11T00:15:55.205Z,19.53
2018-06-11T00:15:59.306Z,19.52
2018-06-11T00:16:03.301Z,19.53
2018-06-11T00:16:07.400Z,19.52
2018-06-11T00:16:11.718Z,19.4
2018-06-11T00:16:16.061Z,19.42
2018-06-11T00:16:20.055Z,19.45
2018-06-11T00:16:24.053Z,19.42
2018-06-11T00:16:28.259Z,19.45
2018-06-11T00:16:32.472Z,19.46
2018-06-11T00:16:36.675Z,19.5
2018-06-11T00:16:40.878Z,19.53
2018-06-11T00:16:45.182Z,19.5
2018-06-11T00:16:49.493Z,19.52
2018-06-11T00:16:53.813Z,19.52
2018-06-11T00:16:58.133Z,19.52
2018-06-11T00:17:02.452Z,19.53
2018-06-11T00:17:06.660Z,19.52
2018-06-11T00:17:10.872Z,19.52
2018-06-11T00:17:15.068Z,19.5
2018-06-11T00:17:19.378Z,19.55
2018-06-11T00:17:23.369Z,19.45
2018-06-11T00:17:27.575Z,19.55
2018-06-11T00:17:31.681Z,19.55
2018-06-11T00:17:36.006Z,19.55
2018-06-11T00:17:40.096Z,19.5
2018-06-11T00:17:44.293Z,19.47
2018-06-11T00:17:48.612Z,19.5
2018-06-11T00:17:52.822Z,19.55
2018-06-11T00:17:57.022Z,19.55
2018-06-11T00:18:01.334Z,19.58
2018-06-11T00:18:05.533Z,19.49
2018-06-11T00:18:09.739Z,19.5
2018-06-11T00:18:13.961Z,19.52
2018-06-11T00:18:18.159Z,19.49
2018-06-11T00:18:22.529Z,19.5
2018-06-11T00:18:26.731Z,19.5
2018-06-11T00:18:31.047Z,19.47
2018-06-11T00:18:35.150Z,19.58
2018-06-11T00:18:39.140Z,19.55
2018-06-11T00:18:43.349Z,19.5
2018-06-11T00:18:47.659Z,19.52
2018-06-11T00:18:51.970Z,19.52
2018-06-11T00:18:56.173Z,19.53
2018-06-11T00:19:00.484Z,19.5
2018-06-11T00:19:04.727Z,19.5
2018-06-11T00:19:08.928Z,19.5
2018-06-11T00:19:13.033Z,19.5
2018-06-11T00:19:17.340Z,19.52
2018-06-11T00:19:21.445Z,19.5
2018-06-11T00:19:25.750Z,19.49
2018-06-11T00:19:29.950Z,19.52
2018-06-11T00:19:34.159Z,19.5
2018-06-11T00:19:38.395Z,19.53
2018-06-11T00:19:42.710Z,19.52
2018-06-11T00:19:46.807Z,19.55
2018-06-11T00:19:51.008Z,19.52
2018-06-11T00:19:55.210Z,19.52
2018-06-11T00:19:59.520Z,19.55
2018-06-11T00:20:03.633Z,19.55
2018-06-11T00:20:07.842Z,19.5
2018-06-11T00:20:12.054Z,19.49
2018-06-11T00:20:16.262Z,19.53
2018-06-11T00:20:20.356Z,19.55
2018-06-11T00:20:24.445Z,19.6
2018-06-11T00:20:28.554Z,19.53
2018-06-11T00:20:32.756Z,19.52
2018-06-11T00:20:36.957Z,19.5
2018-06-11T00:20:41.272Z,19.5
2018-06-11T00:20:45.469Z,19.53
2018-06-11T00:20:49.676Z,19.57
2018-06-11T00:20:53.877Z,19.6
2018-06-11T00:20:58.085Z,19.5
2018-06-11T00:21:02.446Z,19.52
2018-06-11T00:21:06.366Z,19.53
2018-06-11T00:21:10.683Z,19.53
2018-06-11T00:21:14.888Z,19.57
2018-06-11T00:21:18.986Z,19.57
2018-06-11T00:21:23.085Z,19.58
2018-06-11T00:21:27.282Z,19.57
2018-06-11T00:21:31.588Z,19.5
2018-06-11T00:21:35.680Z,19.57
2018-06-11T00:21:39.885Z,19.58
2018-06-11T00:21:44.197Z,19.5
2018-06-11T00:21:48.291Z,19.52
2018-06-11T00:21:52.613Z,19.52
2018-06-11T00:21:56.815Z,19.58
2018-06-11T00:22:01.012Z,19.52
2018-06-11T00:22:05.218Z,19.53
2018-06-11T00:22:09.428Z,19.55
2018-06-11T00:22:13.525Z,19.57
2018-06-11T00:22:17.733Z,19.52
2018-06-11T00:22:21.939Z,19.53
2018-06-11T00:22:26.246Z,19.58
2018-06-11T00:22:30.448Z,19.49
2018-06-11T00:22:34.439Z,19.57
2018-06-11T00:22:38.642Z,19.57
2018-06-11T00:22:42.846Z,19.5
2018-06-11T00:22:47.058Z,19.55
2018-06-11T00:22:51.364Z,19.6
2018-06-11T00:22:55.837Z,19.5
2018-06-11T00:23:00.314Z,19.55
2018-06-11T00:23:04.578Z,19.58
2018-06-11T00:23:08.888Z,19.57
2018-06-11T00:23:13.101Z,19.53
2018-06-11T00:23:17.206Z,19.57
2018-06-11T00:23:21.307Z,19.52
2018-06-11T00:23:25.517Z,19.62
2018-06-11T00:23:29.397Z,19.57
2018-06-11T00:23:33.707Z,19.55
2018-06-11T00:23:37.920Z,19.55
2018-06-11T00:23:42.126Z,19.61
2018-06-11T00:23:46.331Z,19.5
2018-06-11T00:23:50.429Z,19.6
2018-06-11T00:23:54.746Z,19.58
2018-06-11T00:23:58.952Z,19.58
2018-06-11T00:24:03.272Z,19.61
2018-06-11T00:24:07.478Z,19.5
2018-06-11T00:24:11.689Z,19.61
2018-06-11T00:24:15.895Z,19.57
2018-06-11T00:24:20.009Z,19.52
2018-06-11T00:24:24.216Z,19.57
2018-06-11T00:24:28.539Z,19.58
2018-06-11T00:24:32.847Z,19.57
2018-06-11T00:24:37.051Z,19.53
2018-06-11T00:24:41.398Z,19.58
2018-06-11T00:24:45.608Z,19.58
2018-06-11T00:24:49.927Z,19.57
2018-06-11T00:24:54.029Z,19.53
2018-06-11T00:24:58.125Z,19.62
2018-06-11T00:25:02.225Z,19.55
2018-06-11T00:25:06.112Z,19.58
2018-06-11T00:25:10.431Z,19.57
2018-06-11T00:25:14.529Z,19.52
2018-06-11T00:25:18.629Z,19.5
2018-06-11T00:25:22.942Z,19.6
2018-06-11T00:25:26.936Z,19.58
2018-06-11T00:25:31.246Z,19.53
2018-06-11T00:25:35.453Z,19.62
2018-06-11T00:25:39.484Z,19.61
2018-06-11T00:25:43.795Z,19.52
2018-06-11T00:25:48.107Z,19.57
2018-06-11T00:25:52.310Z,19.58
2018-06-11T00:25:56.624Z,19.53
2018-06-11T00:26:00.730Z,19.49
2018-06-11T00:26:04.623Z,19.61
2018-06-11T00:26:08.721Z,19.53
2018-06-11T00:26:12.926Z,19.58
2018-06-11T00:26:17.022Z,19.55
2018-06-11T00:26:21.228Z,19.58
2018-06-11T00:26:25.434Z,19.53
2018-06-11T00:26:29.747Z,19.58
2018-06-11T00:26:34.057Z,19.58
2018-06-11T00:26:38.271Z,19.53
2018-06-11T00:26:42.581Z,19.57
2018-06-11T00:26:46.794Z,19.5
2018-06-11T00:26:50.899Z,19.61
2018-06-11T00:26:54.995Z,19.5
2018-06-11T00:26:59.099Z,19.57
2018-06-11T00:27:03.204Z,19.52
2018-06-11T00:27:07.523Z,19.53
2018-06-11T00:27:11.839Z,19.53
2018-06-11T00:27:16.148Z,19.53
2018-06-11T00:27:20.462Z,19.58
2018-06-11T00:27:24.667Z,19.58
2018-06-11T00:27:28.875Z,19.49
2018-06-11T00:27:32.869Z,19.52
2018-06-11T00:27:37.178Z,19.61
2018-06-11T00:27:41.276Z,19.61
2018-06-11T00:27:45.476Z,19.55
2018-06-11T00:27:49.680Z,19.61
2018-06-11T00:27:53.781Z,19.55
2018-06-11T00:27:58.092Z,19.55
2018-06-11T00:28:02.191Z,19.55
2018-06-11T00:28:06.181Z,19.53
2018-06-11T00:28:10.491Z,19.57
2018-06-11T00:28:14.699Z,19.57
2018-06-11T00:28:18.906Z,19.58
2018-06-11T00:28:23.222Z,19.53
2018-06-11T00:28:27.420Z,19.61
2018-06-11T00:28:31.731Z,19.58
2018-06-11T00:28:35.939Z,19.52
2018-06-11T00:28:39.927Z,19.58
2018-06-11T00:28:44.133Z,19.58
2018-06-11T00:28:48.236Z,19.58
2018-06-11T00:28:52.541Z,19.5
2018-06-11T00:28:56.636Z,19.57
2018-06-11T00:29:00.731Z,19.58
2018-06-11T00:29:04.727Z,19.57
2018-06-11T00:29:09.039Z,19.57
2018-06-11T00:29:13.239Z,19.52
2018-06-11T00:29:17.433Z,19.53
2018-06-11T00:29:21.735Z,19.61
2018-06-11T00:29:25.933Z,19.58
2018-06-11T00:29:30.137Z,19.55
2018-06-11T00:29:34.336Z,19.58
2018-06-11T00:29:38.539Z,19.5
2018-06-11T00:29:42.753Z,19.5
2018-06-11T00:29:46.844Z,19.55
2018-06-11T00:29:51.156Z,19.55
2018-06-11T00:29:55.477Z,19.55
2018-06-11T00:29:59.794Z,19.52
2018-06-11T00:30:04.003Z,19.5
2018-06-11T00:30:08.107Z,19.52
2018-06-11T00:30:12.419Z,19.55
2018-06-11T00:30:16.624Z,19.53
2018-06-11T00:30:20.823Z,19.5
2018-06-11T00:30:25.133Z,19.55
2018-06-11T00:30:29.337Z,19.57
2018-06-11T00:30:33.439Z,19.53
2018-06-11T00:30:37.639Z,19.53
2018-06-11T00:30:41.741Z,19.55
2018-06-11T00:30:45.949Z,19.53
2018-06-11T00:30:50.151Z,19.53
2018-06-11T00:30:54.453Z,19.6
2018-06-11T00:30:58.668Z,19.5
2018-06-11T00:31:02.875Z,19.55
2018-06-11T00:31:06.765Z,19.53
2018-06-11T00:31:10.965Z,19.55
2018-06-11T00:31:15.289Z,19.57
2018-06-11T00:31:19.497Z,19.53
2018-06-11T00:31:23.807Z,19.55
2018-06-11T00:31:28.008Z,19.52
2018-06-11T00:31:32.321Z,19.5
2018-06-11T00:31:36.634Z,19.55
2018-06-11T00:31:40.839Z,19.52
2018-06-11T00:31:45.147Z,19.5
2018-06-11T00:31:49.243Z,19.55
2018-06-11T00:31:53.554Z,19.49
2018-06-11T00:31:57.864Z,19.52
2018-06-11T00:32:02.235Z,19.57
2018-06-11T00:32:06.442Z,19.57
2018-06-11T00:32:10.659Z,19.52
2018-06-11T00:32:14.655Z,19.53
2018-06-11T00:32:18.861Z,19.57
2018-06-11T00:32:23.066Z,19.55
2018-06-11T00:32:27.057Z,19.52
2018-06-11T00:32:31.313Z,19.58
2018-06-11T00:32:35.405Z,19.6
2018-06-11T00:32:39.396Z,19.55
2018-06-11T00:32:43.493Z,19.55
2018-06-11T00:32:47.813Z,19.57
2018-06-11T00:32:51.906Z,19.57
2018-06-11T00:32:56.214Z,19.52
2018-06-11T00:33:00.418Z,19.58
2018-06-11T00:33:04.520Z,19.55
2018-06-11T00:33:08.721Z,19.55
2018-06-11T00:33:13.033Z,19.57
2018-06-11T00:33:49.230Z,19.47
2018-06-11T00:33:53.541Z,19.53
2018-06-11T00:33:57.744Z,19.58
2018-06-11T00:34:01.839Z,19.57
2018-06-11T00:34:05.941Z,19.55
2018-06-11T00:34:09.932Z,19.55
2018-06-11T00:34:14.134Z,19.55
2018-06-11T00:34:18.445Z,19.55
2018-06-11T00:34:22.754Z,19.6
2018-06-11T00:34:27.075Z,19.58
2018-06-11T00:34:31.174Z,19.5
2018-06-11T00:34:35.380Z,19.58
2018-06-11T00:34:39.487Z,19.57
2018-06-11T00:34:43.694Z,19.53
2018-06-11T00:34:47.929Z,19.55
2018-06-11T00:34:52.025Z,19.49
2018-06-11T00:34:56.337Z,19.55
2018-06-11T00:35:00.545Z,19.61
2018-06-11T00:35:04.646Z,19.57
2018-06-11T00:35:08.855Z,19.52
2018-06-11T00:35:13.176Z,19.53
2018-06-11T00:35:17.488Z,19.53
2018-06-11T00:35:21.579Z,19.64
2018-06-11T00:35:25.681Z,19.61
2018-06-11T00:35:29.878Z,19.52
2018-06-11T00:35:34.185Z,19.53
2018-06-11T00:35:38.388Z,19.52
2018-06-11T00:35:42.485Z,19.65
2018-06-11T00:35:46.476Z,19.55
2018-06-11T00:35:50.681Z,19.62
2018-06-11T00:35:54.995Z,19.65
2018-06-11T00:35:59.307Z,19.57
2018-06-11T00:36:03.314Z,19.62
2018-06-11T00:36:07.413Z,19.65
2018-06-11T00:36:11.615Z,19.5
2018-06-11T00:36:15.816Z,19.57
2018-06-11T00:36:20.028Z,19.62
2018-06-11T00:36:24.239Z,19.53
2018-06-11T00:36:28.576Z,19.62
2018-06-11T00:36:32.783Z,19.6
2018-06-11T00:36:36.877Z,19.67
2018-06-11T00:36:40.970Z,19.65
2018-06-11T00:36:45.171Z,19.61
2018-06-11T00:36:49.484Z,19.64
2018-06-11T00:36:53.798Z,19.65
2018-06-11T00:36:57.792Z,19.67
2018-06-11T00:37:01.997Z,19.55
2018-06-11T00:37:06.101Z,19.65
2018-06-11T00:37:10.308Z,19.68
2018-06-11T00:37:14.425Z,19.64
2018-06-11T00:37:18.679Z,19.67
2018-06-11T00:37:22.777Z,19.7
2018-06-11T00:37:26.874Z,19.7
2018-06-11T00:37:30.971Z,19.64
2018-06-11T00:37:35.077Z,19.72
2018-06-11T00:37:39.280Z,19.67
2018-06-11T00:37:43.585Z,19.65
2018-06-11T00:37:47.786Z,19.7
2018-06-11T00:37:51.772Z,19.65
2018-06-11T00:37:55.968Z,19.68
2018-06-11T00:38:00.169Z,19.68
2018-06-11T00:38:04.418Z,19.62
2018-06-11T00:38:08.512Z,19.71
2018-06-11T00:38:12.720Z,19.72
2018-06-11T00:38:16.833Z,19.62
2018-06-11T00:38:21.146Z,19.61
2018-06-11T00:38:25.342Z,19.71
2018-06-11T00:38:29.449Z,19.7
2018-06-11T00:38:33.651Z,19.65
2018-06-11T00:38:37.638Z,19.67
2018-06-11T00:38:41.628Z,19.68
2018-06-11T00:38:45.829Z,19.72
2018-06-11T00:38:50.149Z,19.71
2018-06-11T00:38:54.354Z,19.62
2018-06-11T00:38:58.562Z,19.65
2018-06-11T00:39:02.764Z,19.7
2018-06-11T00:39:06.646Z,19.61
2018-06-11T00:39:10.841Z,19.68
2018-06-11T00:39:15.149Z,19.72
2018-06-11T00:39:19.459Z,19.68
2018-06-11T00:39:23.663Z,19.65
2018-06-11T00:39:27.557Z,19.65
2018-06-11T00:39:31.868Z,19.75
2018-06-11T00:39:36.068Z,19.78
2018-06-11T00:39:40.267Z,19.78
2018-06-11T00:39:44.581Z,19.78
2018-06-11T00:39:48.783Z,19.76
2018-06-11T00:39:52.772Z,19.76
2018-06-11T00:39:56.976Z,19.75
2018-06-11T00:40:00.858Z,19.78
2018-06-11T00:40:04.867Z,19.72
2018-06-11T00:40:08.858Z,19.76
2018-06-11T00:40:13.170Z,19.76
2018-06-11T00:40:17.373Z,19.79
2018-06-11T00:40:21.473Z,19.8
2018-06-11T00:40:25.678Z,19.8
2018-06-11T00:40:29.986Z,19.76
2018-06-11T00:40:34.302Z,19.76
2018-06-11T00:40:38.621Z,19.78
2018-06-11T00:40:42.611Z,19.75
2018-06-11T00:40:46.821Z,19.8
2018-06-11T00:40:50.706Z,19.8
2018-06-11T00:40:54.805Z,19.76
2018-06-11T00:40:59.015Z,19.82
2018-06-11T00:41:03.113Z,19.78
2018-06-11T00:41:07.104Z,19.79
2018-06-11T00:41:11.310Z,19.82
2018-06-11T00:41:15.511Z,19.83
2018-06-11T00:41:19.823Z,19.79
2018-06-11T00:41:24.027Z,19.86
2018-06-11T00:41:28.124Z,19.79
2018-06-11T00:41:32.327Z,19.75
2018-06-11T00:41:36.429Z,19.85
2018-06-11T00:41:40.629Z,19.87
2018-06-11T00:41:44.844Z,19.79
2018-06-11T00:41:49.048Z,19.78
2018-06-11T00:41:53.357Z,19.75
2018-06-11T00:41:57.347Z,19.78
2018-06-11T00:42:01.445Z,19.78
2018-06-11T00:42:05.656Z,19.86
2018-06-11T00:42:09.867Z,19.79
2018-06-11T00:42:14.076Z,19.79
2018-06-11T00:42:18.178Z,19.79
2018-06-11T00:42:22.492Z,19.76
2018-06-11T00:42:26.736Z,19.8
2018-06-11T00:42:30.847Z,19.78
2018-06-11T00:42:34.950Z,19.76
2018-06-11T00:42:39.055Z,19.79
2018-06-11T00:42:43.257Z,19.86
2018-06-11T00:42:47.571Z,19.79
2018-06-11T00:42:51.881Z,19.76
2018-06-11T00:42:56.187Z,19.76
2018-06-11T00:43:00.494Z,19.78
2018-06-11T00:43:04.483Z,19.87
2018-06-11T00:43:08.737Z,19.76
2018-06-11T00:43:12.945Z,19.78
2018-06-11T00:43:17.041Z,19.79
2018-06-11T00:43:21.239Z,19.78
2018-06-11T00:43:25.442Z,19.78
2018-06-11T00:43:29.435Z,19.89
2018-06-11T00:43:33.639Z,19.76
2018-06-11T00:43:37.628Z,19.76
2018-06-11T00:43:41.618Z,19.87
2018-06-11T00:43:45.922Z,19.78
2018-06-11T00:43:50.125Z,19.76
2018-06-11T00:43:54.325Z,19.78
2018-06-11T00:43:58.527Z,19.76
2018-06-11T00:44:02.636Z,19.79
2018-06-11T00:44:06.951Z,19.76
2018-06-11T00:44:11.265Z,19.8
2018-06-11T00:44:15.569Z,19.8
2018-06-11T00:44:19.872Z,19.79
2018-06-11T00:44:24.072Z,19.78
2018-06-11T00:44:28.060Z,19.87
2018-06-11T00:44:31.943Z,19.78
2018-06-11T00:44:36.045Z,19.83
2018-06-11T00:44:40.139Z,19.76
2018-06-11T00:44:44.343Z,19.79
2018-06-11T00:44:48.657Z,19.85
2018-06-11T00:44:52.869Z,19.79
2018-06-11T00:44:57.184Z,19.78
2018-06-11T00:45:01.385Z,19.76
2018-06-11T00:45:05.382Z,19.85
2018-06-11T00:45:09.481Z,19.78
2018-06-11T00:45:13.833Z,19.78
2018-06-11T00:45:17.927Z,19.79
2018-06-11T00:45:22.131Z,19.82
2018-06-11T00:45:26.229Z,19.89
2018-06-11T00:45:30.441Z,19.87
2018-06-11T00:45:34.640Z,19.76
2018-06-11T00:45:38.735Z,19.78
2018-06-11T00:45:42.729Z,19.82
2018-06-11T00:45:46.943Z,19.76
2018-06-11T00:45:50.948Z,19.78
2018-06-11T00:45:55.149Z,19.79
2018-06-11T00:45:59.351Z,19.78
2018-06-11T00:46:03.450Z,19.72
2018-06-11T00:46:07.664Z,19.78
2018-06-11T00:46:11.870Z,19.79
2018-06-11T00:46:15.969Z,19.79
2018-06-11T00:46:20.176Z,19.8
2018-06-11T00:46:24.270Z,19.78
2018-06-11T00:46:28.479Z,19.79
2018-06-11T00:46:32.689Z,19.78
2018-06-11T00:46:37.000Z,19.78
2018-06-11T00:46:41.208Z,19.79
2018-06-11T00:46:45.415Z,19.79
2018-06-11T00:46:49.724Z,19.76
2018-06-11T00:46:54.038Z,19.78
2018-06-11T00:46:58.242Z,19.78
2018-06-11T00:47:02.352Z,19.76
2018-06-11T00:47:06.450Z,19.8
2018-06-11T00:47:10.545Z,19.79
2018-06-11T00:47:14.755Z,19.78
2018-06-11T00:47:18.959Z,19.79
2018-06-11T00:47:23.052Z,19.78
2018-06-11T00:47:27.146Z,19.76
2018-06-11T00:47:31.136Z,19.78
2018-06-11T00:47:35.231Z,19.78
2018-06-11T00:47:39.544Z,19.78
2018-06-11T00:47:43.753Z,19.79
2018-06-11T00:47:47.969Z,19.78
2018-06-11T00:47:52.211Z,19.75
2018-06-11T00:47:56.409Z,19.76
2018-06-11T00:48:00.613Z,19.78
2018-06-11T00:48:04.718Z,19.79
2018-06-11T00:48:09.030Z,19.8
2018-06-11T00:48:13.019Z,19.78
2018-06-11T00:48:17.117Z,19.68
2018-06-11T00:48:21.319Z,19.75
2018-06-11T00:48:25.521Z,19.75
2018-06-11T00:48:29.728Z,19.78
2018-06-11T00:48:33.940Z,19.78
2018-06-11T00:48:38.043Z,19.76
2018-06-11T00:48:42.250Z,19.75
2018-06-11T00:48:46.450Z,19.75
2018-06-11T00:48:50.658Z,19.76
2018-06-11T00:48:54.861Z,19.64
2018-06-11T00:48:59.174Z,19.65
2018-06-11T00:49:03.274Z,19.75
2018-06-11T00:49:07.598Z,19.79
2018-06-11T00:49:11.939Z,19.65
2018-06-11T00:49:16.037Z,19.75
2018-06-11T00:49:20.346Z,19.71
2018-06-11T00:49:24.547Z,19.65
2018-06-11T00:49:28.650Z,19.68
2018-06-11T00:49:32.746Z,19.8
2018-06-11T00:49:36.844Z,19.6
2018-06-11T00:49:41.151Z,19.75
2018-06-11T00:49:45.350Z,19.6
2018-06-11T00:49:49.447Z,19.68
2018-06-11T00:49:53.652Z,19.67
2018-06-11T00:49:57.853Z,19.64
2018-06-11T00:50:02.060Z,19.65
2018-06-11T00:50:06.382Z,19.71
2018-06-11T00:50:10.478Z,19.68
2018-06-11T00:50:14.676Z,19.65
2018-06-11T00:50:18.775Z,19.67
2018-06-11T00:50:22.983Z,19.64
2018-06-11T00:50:27.295Z,19.67
2018-06-11T00:50:31.503Z,19.68
2018-06-11T00:50:35.702Z,19.58
2018-06-11T00:50:39.689Z,19.68
2018-06-11T00:50:43.893Z,19.7
2018-06-11T00:50:48.090Z,19.67
2018-06-11T00:50:52.301Z,19.62
2018-06-11T00:50:56.509Z,19.67
2018-06-11T00:51:00.812Z,19.61
2018-06-11T00:51:04.809Z,19.75
2018-06-11T00:51:09.009Z,19.67
2018-06-11T00:51:13.210Z,19.67
2018-06-11T00:51:17.415Z,19.64
2018-06-11T00:51:21.613Z,19.71
2018-06-11T00:51:25.815Z,19.61
2018-06-11T00:51:29.911Z,19.7
2018-06-11T00:51:34.009Z,19.68
2018-06-11T00:51:38.202Z,19.62
2018-06-11T00:51:42.293Z,19.64
2018-06-11T00:51:46.492Z,19.64
2018-06-11T00:51:50.813Z,19.7
2018-06-11T00:51:55.134Z,19.7
2018-06-11T00:51:59.446Z,19.67
2018-06-11T00:52:03.547Z,19.68
2018-06-11T00:52:07.756Z,19.7
2018-06-11T00:52:11.750Z,19.71
2018-06-11T00:52:16.057Z,19.68
2018-06-11T00:52:20.155Z,19.61
2018-06-11T00:52:24.462Z,19.7
2018-06-11T00:52:28.771Z,19.67
2018-06-11T00:52:32.865Z,19.68
2018-06-11T00:52:36.961Z,19.61
2018-06-11T00:52:40.951Z,19.68
2018-06-11T00:52:45.163Z,19.68
2018-06-11T00:52:49.376Z,19.61
2018-06-11T00:52:53.687Z,19.64
2018-06-11T00:52:57.994Z,19.62
2018-06-11T00:53:02.205Z,19.67
2018-06-11T00:53:06.204Z,19.67
2018-06-11T00:53:10.195Z,19.68
2018-06-11T00:53:14.440Z,19.62
2018-06-11T00:53:18.536Z,19.64
2018-06-11T00:53:22.847Z,19.68
2018-06-11T00:53:27.044Z,19.67
2018-06-11T00:53:31.135Z,19.71
2018-06-11T00:53:35.448Z,19.64
2018-06-11T00:53:39.544Z,19.76
2018-06-11T00:53:43.751Z,19.67
2018-06-11T00:53:48.057Z,19.61
2018-06-11T00:53:52.369Z,19.7
2018-06-11T00:53:56.569Z,19.67
2018-06-11T00:54:00.878Z,19.71
2018-06-11T00:54:04.978Z,19.68
2018-06-11T00:54:09.179Z,19.7
2018-06-11T00:54:13.386Z,19.67
2018-06-11T00:54:17.691Z,19.64
2018-06-11T00:54:21.892Z,19.72
2018-06-11T00:54:25.987Z,19.65
2018-06-11T00:54:30.205Z,19.64
2018-06-11T00:54:34.301Z,19.67
2018-06-11T00:54:38.295Z,19.64
2018-06-11T00:54:42.622Z,19.76
2018-06-11T00:54:46.830Z,19.64